sensor_id;sensor_type;location;lat;lon;timestamp;P1;durP1;ratioP1;P2;durP2;ratioP2
16731;SDS011;8484;50.904;9.192;2023-09-08T00:02:22;4.70;;;2.30;;
16731;SDS011;8484;50.904;9.192;2023-09-08T00:04:52;3.43;;;2.37;;
16731;SDS011;8484;50.904;9.192;2023-09-08T00:07:19;2.20;;;2.00;;
16731;SDS011;8484;50.904;9.192;2023-09-08T00:09:46;4.03;;;2.40;;
16731;SDS011;8484;50.904;9.192;2023-09-08T00:12:13;2.77;;;2.20;;
16731;SDS011;8484;50.904;9.192;2023-09-08T00:14:40;2.47;;;2.20;;
16731;SDS011;8484;50.904;9.192;2023-09-08T00:17:07;2.77;;;2.53;;
16731;SDS011;8484;50.904;9.192;2023-09-08T00:19:34;2.30;;;2.10;;
16731;SDS011;8484;50.904;9.192;2023-09-08T00:22:02;2.93;;;2.40;;
16731;SDS011;8484;50.904;9.192;2023-09-08T00:24:31;2.53;;;2.13;;
16731;SDS011;8484;50.904;9.192;2023-09-08T00:26:57;2.37;;;2.10;;
16731;SDS011;8484;50.904;9.192;2023-09-08T00:29:24;2.87;;;2.50;;
16731;SDS011;8484;50.904;9.192;2023-09-08T00:31:51;3.13;;;2.10;;
16731;SDS011;8484;50.904;9.192;2023-09-08T00:34:18;3.43;;;2.30;;
16731;SDS011;8484;50.904;9.192;2023-09-08T00:36:45;2.97;;;2.30;;
16731;SDS011;8484;50.904;9.192;2023-09-08T00:39:13;3.93;;;2.53;;
16731;SDS011;8484;50.904;9.192;2023-09-08T00:41:40;2.40;;;2.20;;
16731;SDS011;8484;50.904;9.192;2023-09-08T00:44:07;2.30;;;2.10;;
16731;SDS011;8484;50.904;9.192;2023-09-08T00:46:36;2.77;;;2.10;;
16731;SDS011;8484;50.904;9.192;2023-09-08T00:49:03;2.93;;;2.27;;
16731;SDS011;8484;50.904;9.192;2023-09-08T00:51:31;4.20;;;2.20;;
16731;SDS011;8484;50.904;9.192;2023-09-08T00:54:00;2.97;;;2.40;;
16731;SDS011;8484;50.904;9.192;2023-09-08T00:56:28;4.40;;;2.40;;
16731;SDS011;8484;50.904;9.192;2023-09-08T00:58:56;3.60;;;2.60;;
16731;SDS011;8484;50.904;9.192;2023-09-08T01:01:23;2.23;;;2.13;;
16731;SDS011;8484;50.904;9.192;2023-09-08T01:03:49;4.40;;;2.33;;
16731;SDS011;8484;50.904;9.192;2023-09-08T01:06:16;4.93;;;2.40;;
16731;SDS011;8484;50.904;9.192;2023-09-08T01:08:44;2.93;;;2.50;;
16731;SDS011;8484;50.904;9.192;2023-09-08T01:11:11;4.10;;;2.93;;
16731;SDS011;8484;50.904;9.192;2023-09-08T01:13:40;3.10;;;2.90;;
16731;SDS011;8484;50.904;9.192;2023-09-08T01:16:09;3.67;;;3.07;;
16731;SDS011;8484;50.904;9.192;2023-09-08T01:18:36;4.83;;;3.13;;
16731;SDS011;8484;50.904;9.192;2023-09-08T01:21:05;4.23;;;3.37;;
16731;SDS011;8484;50.904;9.192;2023-09-08T01:23:51;3.50;;;3.20;;
16731;SDS011;8484;50.904;9.192;2023-09-08T01:26:34;5.93;;;3.90;;
16731;SDS011;8484;50.904;9.192;2023-09-08T01:29:06;3.70;;;3.40;;
16731;SDS011;8484;50.904;9.192;2023-09-08T01:31:35;4.77;;;3.70;;
16731;SDS011;8484;50.904;9.192;2023-09-08T01:34:04;4.40;;;3.87;;
16731;SDS011;8484;50.904;9.192;2023-09-08T01:39:54;6.93;;;3.90;;
16731;SDS011;8484;50.904;9.192;2023-09-08T01:42:22;4.30;;;3.90;;
16731;SDS011;8484;50.904;9.192;2023-09-08T01:44:49;5.17;;;3.73;;
16731;SDS011;8484;50.904;9.192;2023-09-08T01:47:15;5.53;;;4.10;;
16731;SDS011;8484;50.904;9.192;2023-09-08T01:49:42;4.37;;;3.87;;
16731;SDS011;8484;50.904;9.192;2023-09-08T01:52:09;4.53;;;4.10;;
16731;SDS011;8484;50.904;9.192;2023-09-08T01:54:36;6.27;;;4.70;;
16731;SDS011;8484;50.904;9.192;2023-09-08T01:57:03;4.40;;;4.03;;
16731;SDS011;8484;50.904;9.192;2023-09-08T01:59:32;5.43;;;4.33;;
16731;SDS011;8484;50.904;9.192;2023-09-08T02:01:59;4.90;;;4.20;;
16731;SDS011;8484;50.904;9.192;2023-09-08T02:04:26;4.63;;;4.17;;
16731;SDS011;8484;50.904;9.192;2023-09-08T02:06:53;4.47;;;4.00;;
16731;SDS011;8484;50.904;9.192;2023-09-08T02:09:19;6.27;;;4.03;;
16731;SDS011;8484;50.904;9.192;2023-09-08T02:11:47;3.93;;;3.63;;
16731;SDS011;8484;50.904;9.192;2023-09-08T02:14:13;4.90;;;3.80;;
16731;SDS011;8484;50.904;9.192;2023-09-08T02:16:42;5.23;;;4.30;;
16731;SDS011;8484;50.904;9.192;2023-09-08T02:19:08;4.20;;;3.80;;
16731;SDS011;8484;50.904;9.192;2023-09-08T02:21:35;3.87;;;3.50;;
16731;SDS011;8484;50.904;9.192;2023-09-08T02:24:02;3.93;;;3.30;;
16731;SDS011;8484;50.904;9.192;2023-09-08T02:26:30;4.33;;;3.50;;
16731;SDS011;8484;50.904;9.192;2023-09-08T02:28:58;4.20;;;3.80;;
16731;SDS011;8484;50.904;9.192;2023-09-08T02:31:25;4.20;;;3.60;;
16731;SDS011;8484;50.904;9.192;2023-09-08T02:33:54;4.87;;;3.57;;
16731;SDS011;8484;50.904;9.192;2023-09-08T02:36:24;4.63;;;3.33;;
16731;SDS011;8484;50.904;9.192;2023-09-08T02:38:51;4.83;;;3.63;;
16731;SDS011;8484;50.904;9.192;2023-09-08T02:41:18;4.23;;;3.83;;
16731;SDS011;8484;50.904;9.192;2023-09-08T02:43:45;4.97;;;3.67;;
16731;SDS011;8484;50.904;9.192;2023-09-08T02:46:12;5.03;;;3.53;;
16731;SDS011;8484;50.904;9.192;2023-09-08T02:48:39;3.97;;;3.67;;
16731;SDS011;8484;50.904;9.192;2023-09-08T02:51:08;6.20;;;3.87;;
16731;SDS011;8484;50.904;9.192;2023-09-08T02:53:35;4.20;;;3.80;;
16731;SDS011;8484;50.904;9.192;2023-09-08T02:56:01;4.30;;;3.90;;
16731;SDS011;8484;50.904;9.192;2023-09-08T02:58:30;4.00;;;3.60;;
16731;SDS011;8484;50.904;9.192;2023-09-08T03:01:08;4.97;;;3.80;;
16731;SDS011;8484;50.904;9.192;2023-09-08T03:03:37;5.07;;;4.43;;
16731;SDS011;8484;50.904;9.192;2023-09-08T03:06:03;4.83;;;4.33;;
16731;SDS011;8484;50.904;9.192;2023-09-08T03:08:32;4.10;;;3.70;;
16731;SDS011;8484;50.904;9.192;2023-09-08T03:10:59;4.33;;;3.93;;
16731;SDS011;8484;50.904;9.192;2023-09-08T03:13:26;5.63;;;4.07;;
16731;SDS011;8484;50.904;9.192;2023-09-08T03:15:54;5.77;;;3.97;;
16731;SDS011;8484;50.904;9.192;2023-09-08T03:18:21;4.37;;;3.67;;
16731;SDS011;8484;50.904;9.192;2023-09-08T03:20:48;4.20;;;3.80;;
16731;SDS011;8484;50.904;9.192;2023-09-08T03:23:15;4.23;;;3.93;;
16731;SDS011;8484;50.904;9.192;2023-09-08T03:25:44;4.47;;;3.77;;
16731;SDS011;8484;50.904;9.192;2023-09-08T03:28:11;4.87;;;4.07;;
16731;SDS011;8484;50.904;9.192;2023-09-08T03:30:38;6.50;;;3.53;;
16731;SDS011;8484;50.904;9.192;2023-09-08T03:33:05;5.50;;;4.50;;
16731;SDS011;8484;50.904;9.192;2023-09-08T03:35:32;5.67;;;4.30;;
16731;SDS011;8484;50.904;9.192;2023-09-08T03:37:59;4.90;;;4.40;;
16731;SDS011;8484;50.904;9.192;2023-09-08T03:40:26;4.87;;;4.47;;
16731;SDS011;8484;50.904;9.192;2023-09-08T03:42:54;4.50;;;4.07;;
16731;SDS011;8484;50.904;9.192;2023-09-08T03:45:24;5.80;;;4.40;;
16731;SDS011;8484;50.904;9.192;2023-09-08T03:47:51;5.90;;;4.37;;
16731;SDS011;8484;50.904;9.192;2023-09-08T03:50:18;6.30;;;5.70;;
16731;SDS011;8484;50.904;9.192;2023-09-08T03:52:45;5.90;;;4.73;;
16731;SDS011;8484;50.904;9.192;2023-09-08T03:55:12;5.37;;;4.70;;
16731;SDS011;8484;50.904;9.192;2023-09-08T03:57:39;5.03;;;4.60;;
16731;SDS011;8484;50.904;9.192;2023-09-08T04:00:08;5.10;;;4.60;;
16731;SDS011;8484;50.904;9.192;2023-09-08T04:02:37;4.77;;;4.37;;
16731;SDS011;8484;50.904;9.192;2023-09-08T04:05:05;8.00;;;4.30;;
16731;SDS011;8484;50.904;9.192;2023-09-08T04:07:32;5.50;;;5.00;;
16731;SDS011;8484;50.904;9.192;2023-09-08T04:09:59;5.20;;;4.80;;
16731;SDS011;8484;50.904;9.192;2023-09-08T04:12:25;5.50;;;5.00;;
16731;SDS011;8484;50.904;9.192;2023-09-08T04:14:52;5.60;;;5.03;;
16731;SDS011;8484;50.904;9.192;2023-09-08T04:17:20;5.70;;;5.20;;
16731;SDS011;8484;50.904;9.192;2023-09-08T04:19:47;6.83;;;5.30;;
16731;SDS011;8484;50.904;9.192;2023-09-08T04:22:16;5.40;;;4.90;;
16731;SDS011;8484;50.904;9.192;2023-09-08T04:24:42;5.07;;;4.63;;
16731;SDS011;8484;50.904;9.192;2023-09-08T04:27:09;5.13;;;4.63;;
16731;SDS011;8484;50.904;9.192;2023-09-08T04:29:36;5.30;;;4.80;;
16731;SDS011;8484;50.904;9.192;2023-09-08T04:32:04;6.03;;;4.57;;
16731;SDS011;8484;50.904;9.192;2023-09-08T04:34:36;6.60;;;4.33;;
16731;SDS011;8484;50.904;9.192;2023-09-08T04:37:04;5.50;;;5.00;;
16731;SDS011;8484;50.904;9.192;2023-09-08T04:39:31;5.93;;;5.33;;
16731;SDS011;8484;50.904;9.192;2023-09-08T04:41:59;5.03;;;4.67;;
16731;SDS011;8484;50.904;9.192;2023-09-08T04:44:26;5.97;;;5.47;;
16731;SDS011;8484;50.904;9.192;2023-09-08T04:46:53;13.03;;;6.47;;
16731;SDS011;8484;50.904;9.192;2023-09-08T04:49:21;8.90;;;5.80;;
16731;SDS011;8484;50.904;9.192;2023-09-08T04:51:49;30.67;;;7.03;;
16731;SDS011;8484;50.904;9.192;2023-09-08T04:54:16;25.60;;;5.20;;
16731;SDS011;8484;50.904;9.192;2023-09-08T04:56:45;50.60;;;6.00;;
16731;SDS011;8484;50.904;9.192;2023-09-08T04:59:12;15.63;;;4.70;;
16731;SDS011;8484;50.904;9.192;2023-09-08T05:01:39;40.40;;;4.27;;
16731;SDS011;8484;50.904;9.192;2023-09-08T05:04:06;26.67;;;5.53;;
16731;SDS011;8484;50.904;9.192;2023-09-08T05:06:32;24.30;;;6.07;;
16731;SDS011;8484;50.904;9.192;2023-09-08T05:09:01;10.67;;;4.10;;
16731;SDS011;8484;50.904;9.192;2023-09-08T05:11:28;4.30;;;3.50;;
16731;SDS011;8484;50.904;9.192;2023-09-08T05:13:55;3.43;;;3.13;;
16731;SDS011;8484;50.904;9.192;2023-09-08T05:16:22;7.80;;;3.63;;
16731;SDS011;8484;50.904;9.192;2023-09-08T05:19:02;5.20;;;3.77;;
16731;SDS011;8484;50.904;9.192;2023-09-08T05:21:29;3.50;;;3.20;;
16731;SDS011;8484;50.904;9.192;2023-09-08T05:23:56;4.43;;;3.93;;
16731;SDS011;8484;50.904;9.192;2023-09-08T05:26:25;6.67;;;3.87;;
16731;SDS011;8484;50.904;9.192;2023-09-08T05:28:56;13.33;;;4.07;;
16731;SDS011;8484;50.904;9.192;2023-09-08T05:31:23;20.40;;;5.53;;
16731;SDS011;8484;50.904;9.192;2023-09-08T05:33:51;5.53;;;4.43;;
16731;SDS011;8484;50.904;9.192;2023-09-08T05:36:19;20.60;;;5.77;;
16731;SDS011;8484;50.904;9.192;2023-09-08T05:38:46;12.17;;;6.30;;
16731;SDS011;8484;50.904;9.192;2023-09-08T05:41:12;20.00;;;4.83;;
16731;SDS011;8484;50.904;9.192;2023-09-08T05:43:41;18.43;;;4.50;;
16731;SDS011;8484;50.904;9.192;2023-09-08T05:46:08;3.20;;;3.00;;
16731;SDS011;8484;50.904;9.192;2023-09-08T05:48:35;3.00;;;2.80;;
16731;SDS011;8484;50.904;9.192;2023-09-08T05:51:02;3.13;;;2.93;;
16731;SDS011;8484;50.904;9.192;2023-09-08T05:53:31;2.70;;;2.50;;
16731;SDS011;8484;50.904;9.192;2023-09-08T05:55:58;2.47;;;2.27;;
16731;SDS011;8484;50.904;9.192;2023-09-08T05:58:25;2.53;;;2.33;;
16731;SDS011;8484;50.904;9.192;2023-09-08T06:00:53;2.50;;;2.30;;
16731;SDS011;8484;50.904;9.192;2023-09-08T06:03:20;2.53;;;2.30;;
16731;SDS011;8484;50.904;9.192;2023-09-08T06:05:47;3.07;;;2.57;;
16731;SDS011;8484;50.904;9.192;2023-09-08T06:08:14;2.27;;;2.00;;
16731;SDS011;8484;50.904;9.192;2023-09-08T06:10:41;3.00;;;1.90;;
16731;SDS011;8484;50.904;9.192;2023-09-08T06:13:08;2.07;;;1.90;;
16731;SDS011;8484;50.904;9.192;2023-09-08T06:15:35;2.30;;;2.10;;
16731;SDS011;8484;50.904;9.192;2023-09-08T06:18:04;2.10;;;1.90;;
16731;SDS011;8484;50.904;9.192;2023-09-08T06:20:31;2.20;;;2.00;;
16731;SDS011;8484;50.904;9.192;2023-09-08T06:22:58;2.10;;;2.00;;
16731;SDS011;8484;50.904;9.192;2023-09-08T06:25:26;2.27;;;2.07;;
16731;SDS011;8484;50.904;9.192;2023-09-08T06:27:53;2.37;;;1.70;;
16731;SDS011;8484;50.904;9.192;2023-09-08T06:30:20;1.90;;;1.70;;
16731;SDS011;8484;50.904;9.192;2023-09-08T06:32:47;2.23;;;1.70;;
16731;SDS011;8484;50.904;9.192;2023-09-08T06:35:16;2.10;;;1.90;;
16731;SDS011;8484;50.904;9.192;2023-09-08T06:37:43;2.80;;;1.70;;
16731;SDS011;8484;50.904;9.192;2023-09-08T06:40:09;1.83;;;1.73;;
16731;SDS011;8484;50.904;9.192;2023-09-08T06:42:36;3.20;;;1.90;;
16731;SDS011;8484;50.904;9.192;2023-09-08T06:45:04;1.80;;;1.70;;
16731;SDS011;8484;50.904;9.192;2023-09-08T06:47:31;3.57;;;2.00;;
16731;SDS011;8484;50.904;9.192;2023-09-08T06:49:58;4.10;;;1.90;;
16731;SDS011;8484;50.904;9.192;2023-09-08T06:52:26;4.03;;;2.23;;
16731;SDS011;8484;50.904;9.192;2023-09-08T06:54:53;3.93;;;2.10;;
16731;SDS011;8484;50.904;9.192;2023-09-08T06:57:20;2.83;;;2.10;;
16731;SDS011;8484;50.904;9.192;2023-09-08T06:59:47;3.50;;;2.00;;
16731;SDS011;8484;50.904;9.192;2023-09-08T07:02:14;2.47;;;2.20;;
16731;SDS011;8484;50.904;9.192;2023-09-08T07:04:41;3.93;;;2.20;;
16731;SDS011;8484;50.904;9.192;2023-09-08T07:07:08;2.23;;;2.03;;
16731;SDS011;8484;50.904;9.192;2023-09-08T07:09:37;2.23;;;2.03;;
16731;SDS011;8484;50.904;9.192;2023-09-08T07:12:04;5.87;;;2.23;;
16731;SDS011;8484;50.904;9.192;2023-09-08T07:14:32;2.70;;;2.13;;
16731;SDS011;8484;50.904;9.192;2023-09-08T07:16:59;3.37;;;2.20;;
16731;SDS011;8484;50.904;9.192;2023-09-08T07:19:26;2.20;;;2.00;;
16731;SDS011;8484;50.904;9.192;2023-09-08T07:21:53;3.10;;;2.13;;
16731;SDS011;8484;50.904;9.192;2023-09-08T07:24:20;2.37;;;2.10;;
16731;SDS011;8484;50.904;9.192;2023-09-08T07:26:48;2.87;;;2.20;;
16731;SDS011;8484;50.904;9.192;2023-09-08T07:29:15;3.00;;;2.10;;
16731;SDS011;8484;50.904;9.192;2023-09-08T07:31:42;4.23;;;2.10;;
16731;SDS011;8484;50.904;9.192;2023-09-08T07:34:09;2.63;;;2.00;;
16731;SDS011;8484;50.904;9.192;2023-09-08T07:36:36;2.33;;;2.00;;
16731;SDS011;8484;50.904;9.192;2023-09-08T07:39:03;2.47;;;1.73;;
16731;SDS011;8484;50.904;9.192;2023-09-08T07:41:30;4.23;;;2.00;;
16731;SDS011;8484;50.904;9.192;2023-09-08T07:43:58;2.00;;;1.90;;
16731;SDS011;8484;50.904;9.192;2023-09-08T07:46:25;4.13;;;1.90;;
16731;SDS011;8484;50.904;9.192;2023-09-08T07:48:52;3.27;;;2.20;;
16731;SDS011;8484;50.904;9.192;2023-09-08T07:51:19;3.03;;;2.07;;
16731;SDS011;8484;50.904;9.192;2023-09-08T07:53:46;2.17;;;1.80;;
16731;SDS011;8484;50.904;9.192;2023-09-08T07:56:13;4.13;;;2.00;;
16731;SDS011;8484;50.904;9.192;2023-09-08T07:58:41;3.63;;;1.63;;
16731;SDS011;8484;50.904;9.192;2023-09-08T08:01:09;4.73;;;2.07;;
16731;SDS011;8484;50.904;9.192;2023-09-08T08:03:36;1.77;;;1.60;;
16731;SDS011;8484;50.904;9.192;2023-09-08T08:06:03;3.33;;;1.83;;
16731;SDS011;8484;50.904;9.192;2023-09-08T08:08:30;5.80;;;1.80;;
16731;SDS011;8484;50.904;9.192;2023-09-08T08:10:58;2.00;;;1.80;;
16731;SDS011;8484;50.904;9.192;2023-09-08T08:13:25;1.90;;;1.70;;
16731;SDS011;8484;50.904;9.192;2023-09-08T08:15:52;6.90;;;1.93;;
16731;SDS011;8484;50.904;9.192;2023-09-08T08:18:20;3.70;;;1.60;;
16731;SDS011;8484;50.904;9.192;2023-09-08T08:20:47;2.37;;;1.50;;
16731;SDS011;8484;50.904;9.192;2023-09-08T08:23:14;2.00;;;1.80;;
16731;SDS011;8484;50.904;9.192;2023-09-08T08:25:41;2.93;;;1.50;;
16731;SDS011;8484;50.904;9.192;2023-09-08T08:28:08;3.03;;;1.50;;
16731;SDS011;8484;50.904;9.192;2023-09-08T08:30:35;3.10;;;1.60;;
16731;SDS011;8484;50.904;9.192;2023-09-08T08:33:02;2.43;;;1.43;;
16731;SDS011;8484;50.904;9.192;2023-09-08T08:35:30;3.47;;;1.60;;
16731;SDS011;8484;50.904;9.192;2023-09-08T08:37:57;1.60;;;1.50;;
16731;SDS011;8484;50.904;9.192;2023-09-08T08:40:23;1.50;;;1.40;;
16731;SDS011;8484;50.904;9.192;2023-09-08T08:42:53;3.17;;;1.40;;
16731;SDS011;8484;50.904;9.192;2023-09-08T08:45:22;4.23;;;1.57;;
16731;SDS011;8484;50.904;9.192;2023-09-08T08:47:50;1.67;;;1.50;;
16731;SDS011;8484;50.904;9.192;2023-09-08T08:50:17;1.33;;;1.23;;
16731;SDS011;8484;50.904;9.192;2023-09-08T08:52:46;2.03;;;1.40;;
16731;SDS011;8484;50.904;9.192;2023-09-08T08:55:13;2.07;;;1.47;;
16731;SDS011;8484;50.904;9.192;2023-09-08T08:57:41;1.87;;;1.40;;
16731;SDS011;8484;50.904;9.192;2023-09-08T09:00:09;2.67;;;1.47;;
16731;SDS011;8484;50.904;9.192;2023-09-08T09:02:38;7.13;;;1.90;;
16731;SDS011;8484;50.904;9.192;2023-09-08T09:07:37;1.60;;;1.50;;
16731;SDS011;8484;50.904;9.192;2023-09-08T09:10:06;2.10;;;1.60;;
16731;SDS011;8484;50.904;9.192;2023-09-08T09:12:34;1.93;;;1.40;;
16731;SDS011;8484;50.904;9.192;2023-09-08T09:15:03;2.23;;;1.30;;
16731;SDS011;8484;50.904;9.192;2023-09-08T09:17:32;3.07;;;1.60;;
16731;SDS011;8484;50.904;9.192;2023-09-08T09:20:12;2.57;;;1.40;;
16731;SDS011;8484;50.904;9.192;2023-09-08T09:22:42;2.10;;;1.60;;
16731;SDS011;8484;50.904;9.192;2023-09-08T09:25:11;1.43;;;1.33;;
16731;SDS011;8484;50.904;9.192;2023-09-08T09:27:49;2.30;;;1.47;;
16731;SDS011;8484;50.904;9.192;2023-09-08T09:30:17;2.10;;;1.30;;
16731;SDS011;8484;50.904;9.192;2023-09-08T09:32:45;1.70;;;1.40;;
16731;SDS011;8484;50.904;9.192;2023-09-08T09:35:14;1.53;;;1.43;;
16731;SDS011;8484;50.904;9.192;2023-09-08T09:37:41;1.50;;;1.30;;
16731;SDS011;8484;50.904;9.192;2023-09-08T09:40:08;2.87;;;1.10;;
16731;SDS011;8484;50.904;9.192;2023-09-08T09:42:37;1.80;;;1.13;;
16731;SDS011;8484;50.904;9.192;2023-09-08T09:45:05;2.03;;;1.10;;
16731;SDS011;8484;50.904;9.192;2023-09-08T09:47:33;2.83;;;1.33;;
16731;SDS011;8484;50.904;9.192;2023-09-08T09:50:00;1.27;;;1.10;;
16731;SDS011;8484;50.904;9.192;2023-09-08T09:52:28;1.93;;;1.40;;
16731;SDS011;8484;50.904;9.192;2023-09-08T09:54:56;2.70;;;1.10;;
16731;SDS011;8484;50.904;9.192;2023-09-08T09:57:25;1.20;;;1.10;;
16731;SDS011;8484;50.904;9.192;2023-09-08T09:59:53;1.20;;;1.10;;
16731;SDS011;8484;50.904;9.192;2023-09-08T10:02:21;3.17;;;1.20;;
16731;SDS011;8484;50.904;9.192;2023-09-08T10:04:49;1.73;;;1.20;;
16731;SDS011;8484;50.904;9.192;2023-09-08T10:07:16;1.30;;;1.20;;
16731;SDS011;8484;50.904;9.192;2023-09-08T10:09:44;1.73;;;1.17;;
16731;SDS011;8484;50.904;9.192;2023-09-08T10:12:12;1.07;;;1.00;;
16731;SDS011;8484;50.904;9.192;2023-09-08T10:14:43;2.40;;;1.30;;
16731;SDS011;8484;50.904;9.192;2023-09-08T10:17:11;3.70;;;1.10;;
16731;SDS011;8484;50.904;9.192;2023-09-08T10:19:42;2.23;;;1.37;;
16731;SDS011;8484;50.904;9.192;2023-09-08T10:22:14;4.80;;;1.20;;
16731;SDS011;8484;50.904;9.192;2023-09-08T10:24:45;1.33;;;1.08;;
16731;SDS011;8484;50.904;9.192;2023-09-08T10:27:14;2.42;;;1.10;;
16731;SDS011;8484;50.904;9.192;2023-09-08T10:29:46;1.42;;;1.17;;
16731;SDS011;8484;50.904;9.192;2023-09-08T10:32:24;0.95;;;0.90;;
16731;SDS011;8484;50.904;9.192;2023-09-08T10:35:01;1.58;;;1.13;;
16731;SDS011;8484;50.904;9.192;2023-09-08T10:37:38;2.17;;;1.20;;
16731;SDS011;8484;50.904;9.192;2023-09-08T10:40:20;4.97;;;3.30;;
16731;SDS011;8484;50.904;9.192;2023-09-08T10:45:43;1.50;;;1.10;;
16731;SDS011;8484;50.904;9.192;2023-09-08T10:48:14;4.47;;;1.30;;
16731;SDS011;8484;50.904;9.192;2023-09-08T10:50:41;1.10;;;1.00;;
16731;SDS011;8484;50.904;9.192;2023-09-08T10:53:13;3.20;;;1.20;;
16731;SDS011;8484;50.904;9.192;2023-09-08T10:55:41;2.17;;;1.10;;
16731;SDS011;8484;50.904;9.192;2023-09-08T10:58:19;1.13;;;1.02;;
16731;SDS011;8484;50.904;9.192;2023-09-08T11:00:51;1.30;;;1.20;;
16731;SDS011;8484;50.904;9.192;2023-09-08T11:03:27;1.15;;;1.05;;
16731;SDS011;8484;50.904;9.192;2023-09-08T11:06:05;1.17;;;1.00;;
16731;SDS011;8484;50.904;9.192;2023-09-08T11:08:33;1.30;;;1.15;;
16731;SDS011;8484;50.904;9.192;2023-09-08T11:11:01;1.55;;;1.13;;
16731;SDS011;8484;50.904;9.192;2023-09-08T11:13:28;2.50;;;1.40;;
16731;SDS011;8484;50.904;9.192;2023-09-08T11:15:57;1.60;;;1.00;;
16731;SDS011;8484;50.904;9.192;2023-09-08T11:18:25;1.35;;;1.20;;
16731;SDS011;8484;50.904;9.192;2023-09-08T11:20:52;2.15;;;1.15;;
16731;SDS011;8484;50.904;9.192;2023-09-08T11:23:20;1.15;;;1.05;;
16731;SDS011;8484;50.904;9.192;2023-09-08T11:25:47;2.17;;;1.20;;
16731;SDS011;8484;50.904;9.192;2023-09-08T11:28:14;3.42;;;1.10;;
16731;SDS011;8484;50.904;9.192;2023-09-08T11:30:42;6.40;;;1.27;;
16731;SDS011;8484;50.904;9.192;2023-09-08T11:33:49;2.10;;;1.10;;
16731;SDS011;8484;50.904;9.192;2023-09-08T11:36:21;2.00;;;1.10;;
16731;SDS011;8484;50.904;9.192;2023-09-08T11:38:48;1.60;;;1.33;;
16731;SDS011;8484;50.904;9.192;2023-09-08T11:41:14;1.20;;;1.10;;
16731;SDS011;8484;50.904;9.192;2023-09-08T11:43:42;2.05;;;1.25;;
16731;SDS011;8484;50.904;9.192;2023-09-08T11:46:10;2.13;;;1.35;;
16731;SDS011;8484;50.904;9.192;2023-09-08T11:48:39;1.20;;;1.10;;
16731;SDS011;8484;50.904;9.192;2023-09-08T11:51:08;5.63;;;1.23;;
16731;SDS011;8484;50.904;9.192;2023-09-08T11:53:36;2.40;;;1.30;;
16731;SDS011;8484;50.904;9.192;2023-09-08T11:56:04;1.35;;;1.05;;
16731;SDS011;8484;50.904;9.192;2023-09-08T11:58:32;1.60;;;1.20;;
16731;SDS011;8484;50.904;9.192;2023-09-08T12:00:59;1.10;;;1.00;;
16731;SDS011;8484;50.904;9.192;2023-09-08T12:03:26;1.13;;;1.00;;
16731;SDS011;8484;50.904;9.192;2023-09-08T12:05:53;1.15;;;1.05;;
16731;SDS011;8484;50.904;9.192;2023-09-08T12:08:24;1.98;;;1.23;;
16731;SDS011;8484;50.904;9.192;2023-09-08T12:10:53;1.88;;;1.20;;
16731;SDS011;8484;50.904;9.192;2023-09-08T12:13:20;3.47;;;1.40;;
16731;SDS011;8484;50.904;9.192;2023-09-08T12:15:48;1.57;;;1.20;;
16731;SDS011;8484;50.904;9.192;2023-09-08T12:18:15;3.90;;;1.37;;
16731;SDS011;8484;50.904;9.192;2023-09-08T12:20:44;3.03;;;1.30;;
16731;SDS011;8484;50.904;9.192;2023-09-08T12:23:17;2.90;;;1.40;;
16731;SDS011;8484;50.904;9.192;2023-09-08T12:25:47;1.50;;;1.00;;
16731;SDS011;8484;50.904;9.192;2023-09-08T12:28:17;2.20;;;1.10;;
16731;SDS011;8484;50.904;9.192;2023-09-08T12:30:45;3.13;;;1.07;;
16731;SDS011;8484;50.904;9.192;2023-09-08T12:33:13;1.30;;;1.10;;
16731;SDS011;8484;50.904;9.192;2023-09-08T12:35:42;1.20;;;1.10;;
16731;SDS011;8484;50.904;9.192;2023-09-08T12:38:09;1.33;;;1.20;;
16731;SDS011;8484;50.904;9.192;2023-09-08T12:40:37;1.40;;;1.30;;
16731;SDS011;8484;50.904;9.192;2023-09-08T12:43:08;1.83;;;1.13;;
16731;SDS011;8484;50.904;9.192;2023-09-08T12:45:35;1.30;;;1.20;;
16731;SDS011;8484;50.904;9.192;2023-09-08T12:48:02;1.60;;;1.10;;
16731;SDS011;8484;50.904;9.192;2023-09-08T12:50:31;1.30;;;1.20;;
16731;SDS011;8484;50.904;9.192;2023-09-08T12:52:58;1.47;;;1.37;;
16731;SDS011;8484;50.904;9.192;2023-09-08T12:55:25;1.30;;;0.97;;
16731;SDS011;8484;50.904;9.192;2023-09-08T12:57:53;2.73;;;1.30;;
16731;SDS011;8484;50.904;9.192;2023-09-08T13:00:25;1.20;;;1.10;;
16731;SDS011;8484;50.904;9.192;2023-09-08T13:02:53;5.53;;;1.40;;
16731;SDS011;8484;50.904;9.192;2023-09-08T13:05:20;1.47;;;1.10;;
16731;SDS011;8484;50.904;9.192;2023-09-08T13:07:47;1.20;;;1.10;;
16731;SDS011;8484;50.904;9.192;2023-09-08T13:10:13;1.10;;;1.00;;
16731;SDS011;8484;50.904;9.192;2023-09-08T13:12:41;1.20;;;1.10;;
16731;SDS011;8484;50.904;9.192;2023-09-08T13:15:08;2.60;;;1.23;;
16731;SDS011;8484;50.904;9.192;2023-09-08T13:17:36;3.20;;;1.30;;
16731;SDS011;8484;50.904;9.192;2023-09-08T13:20:04;1.17;;;1.07;;
16731;SDS011;8484;50.904;9.192;2023-09-08T13:22:32;3.23;;;1.20;;
16731;SDS011;8484;50.904;9.192;2023-09-08T13:24:59;3.43;;;1.07;;
16731;SDS011;8484;50.904;9.192;2023-09-08T13:27:26;1.20;;;1.10;;
16731;SDS011;8484;50.904;9.192;2023-09-08T13:29:53;2.73;;;1.00;;
16731;SDS011;8484;50.904;9.192;2023-09-08T13:32:21;1.30;;;1.00;;
16731;SDS011;8484;50.904;9.192;2023-09-08T13:34:51;1.93;;;1.00;;
16731;SDS011;8484;50.904;9.192;2023-09-08T13:37:18;2.60;;;0.90;;
16731;SDS011;8484;50.904;9.192;2023-09-08T13:39:45;1.00;;;1.00;;
16731;SDS011;8484;50.904;9.192;2023-09-08T13:42:12;1.30;;;1.20;;
16731;SDS011;8484;50.904;9.192;2023-09-08T13:44:39;2.80;;;1.20;;
16731;SDS011;8484;50.904;9.192;2023-09-08T13:47:06;2.10;;;1.40;;
16731;SDS011;8484;50.904;9.192;2023-09-08T13:49:33;1.53;;;1.30;;
16731;SDS011;8484;50.904;9.192;2023-09-08T13:52:01;1.20;;;1.10;;
16731;SDS011;8484;50.904;9.192;2023-09-08T13:54:28;1.13;;;1.03;;
16731;SDS011;8484;50.904;9.192;2023-09-08T13:56:59;2.63;;;1.20;;
16731;SDS011;8484;50.904;9.192;2023-09-08T13:59:32;1.30;;;1.10;;
16731;SDS011;8484;50.904;9.192;2023-09-08T14:01:59;1.73;;;1.23;;
16731;SDS011;8484;50.904;9.192;2023-09-08T14:04:28;1.60;;;1.10;;
16731;SDS011;8484;50.904;9.192;2023-09-08T14:06:55;2.00;;;1.10;;
16731;SDS011;8484;50.904;9.192;2023-09-08T14:09:23;1.83;;;1.10;;
16731;SDS011;8484;50.904;9.192;2023-09-08T14:11:51;2.93;;;1.13;;
16731;SDS011;8484;50.904;9.192;2023-09-08T14:14:21;5.17;;;2.03;;
16731;SDS011;8484;50.904;9.192;2023-09-08T14:16:49;2.70;;;1.30;;
16731;SDS011;8484;50.904;9.192;2023-09-08T14:19:16;1.33;;;0.97;;
16731;SDS011;8484;50.904;9.192;2023-09-08T14:21:43;1.20;;;1.10;;
16731;SDS011;8484;50.904;9.192;2023-09-08T14:24:10;3.77;;;1.20;;
16731;SDS011;8484;50.904;9.192;2023-09-08T14:26:39;1.77;;;1.17;;
16731;SDS011;8484;50.904;9.192;2023-09-08T14:29:06;1.30;;;1.20;;
16731;SDS011;8484;50.904;9.192;2023-09-08T14:31:33;1.33;;;1.10;;
16731;SDS011;8484;50.904;9.192;2023-09-08T14:34:00;3.13;;;1.30;;
16731;SDS011;8484;50.904;9.192;2023-09-08T14:36:28;1.80;;;1.20;;
16731;SDS011;8484;50.904;9.192;2023-09-08T14:38:55;2.30;;;1.00;;
16731;SDS011;8484;50.904;9.192;2023-09-08T14:41:22;2.47;;;1.10;;
16731;SDS011;8484;50.904;9.192;2023-09-08T14:43:50;1.20;;;1.10;;
16731;SDS011;8484;50.904;9.192;2023-09-08T14:46:17;1.90;;;1.10;;
16731;SDS011;8484;50.904;9.192;2023-09-08T14:48:44;1.37;;;1.10;;
16731;SDS011;8484;50.904;9.192;2023-09-08T14:51:11;1.47;;;1.30;;
16731;SDS011;8484;50.904;9.192;2023-09-08T14:53:38;2.93;;;1.20;;
16731;SDS011;8484;50.904;9.192;2023-09-08T14:56:05;1.30;;;1.00;;
16731;SDS011;8484;50.904;9.192;2023-09-08T14:58:32;1.00;;;0.90;;
16731;SDS011;8484;50.904;9.192;2023-09-08T15:01:00;2.00;;;1.00;;
16731;SDS011;8484;50.904;9.192;2023-09-08T15:03:32;1.07;;;1.00;;
16731;SDS011;8484;50.904;9.192;2023-09-08T15:05:59;3.03;;;1.00;;
16731;SDS011;8484;50.904;9.192;2023-09-08T15:08:27;3.00;;;1.03;;
16731;SDS011;8484;50.904;9.192;2023-09-08T15:10:54;1.97;;;1.07;;
16731;SDS011;8484;50.904;9.192;2023-09-08T15:13:21;1.80;;;1.00;;
16731;SDS011;8484;50.904;9.192;2023-09-08T15:15:49;1.70;;;1.10;;